Waterloo, IA (50701)

12:31 PM CST on December 10, 2016 (GMT -0600)
Byrnes Golf Course | | Change Station
Active Advisory: Winter Weather Advisory

Elev 925 ft 42.48 °N, 92.37 °W | Updated 34 seconds ago

Snow
Snow
21.9 °F
Feels Like 22 °F
N
3.0
Wind Variable Wind from SE

Today
High -- | Low -- °F
--% Chance of Precip.
Yesterday
High -- | Low -- °F
Precip. -- in
Pressure 30.43 in
Visibility 1.5 miles
Clouds Few 1400 ft
Mostly Cloudy 2700 ft
Overcast 3400 ft
Windchill 22 °F
Dew Point 18 °F
Humidity 86%
Rainfall 0.00 in
Snow Depth Not available.
7:28 AM 4:36 PM
Waxing Gibbous, 85% visible
METAR KALO 101754Z 12006KT 1 1/2SM -SN FEW014 BKN027 OVC034 M07/M09 A3038 RMK AO2 SLP305 P0000 60001 T10671094 11067 21083 58027
Pressure 30.43 in
Visibility 1.5 miles
Clouds Few 1400 ft
Mostly Cloudy 2700 ft
Overcast 3400 ft
Windchill 22 °F
Dew Point 18 °F
Humidity 86%
Rainfall 0.00 in
Snow Depth Not available.
7:28 AM 4:36 PM
Waxing Gibbous, 85% visible
METAR KALO 101754Z 12006KT 1 1/2SM -SN FEW014 BKN027 OVC034 M07/M09 A3038 RMK AO2 SLP305 P0000 60001 T10671094 11067 21083 58027

10-Day Weather Forecast

Almanac

Astronomy

Dec. 10, 2016 Rise Set
Actual Time
Civil Twilight
Nautical Twilight
Astronomical Twilight
Moon
Length of Visible Light
Length of Day
Tomorrow will be .
, % of the Moon is Illuminated

Today's Extremes

State Highs State Lows

Community

WunderPhotos

Upload Photos

1,956,617 photos uploaded!

WunderBlog® & News

Nearby

Air Quality

  Air Quality AQ Index Pollutant
Not available.

Snow Depth

Station Depth Elevation

Earthquake Activity

City Distance Mag. Time & Date
Minimum magnitude displayed is 2.5.

Coastal Water Temperatures

Place Temperature

Stations

Nearby Weather Stations

Station Location Temp. Windchill Dew Point Humidity Wind Precip. Elev Updated Type
                   

Watches & Warnings

Winter Weather Advisory
Issued: 10:51 AM CST Dec. 10, 2016 – National Weather Service

... Winter Weather Advisory remains in effect from 2 PM this
afternoon to 3 PM CST Sunday...

* short term trends... a band of light to moderate snowfall will
move from west to east across the area through this afternoon.
Expect accumulations of 1 to 2 inches during this time and for
roadways to become quickly snow covered and hazardous.

* Storm total snow accumulations... total accumulations for the
event will range from 2 to 4 inches south of Highway 20 and 4 to
8 inches to the north. Locally higher accumulations may occur.

* Winds/visibility... southeast winds will be around 15 mph gusts
near 25 mph overnight. Visibilities will be reduced to less than
one half mile at times.

* Impacts... the primary impacts will be very hazardous travel
conditions due to reduced visibility and snow covered and icy
roads.

Precautionary/preparedness actions...

A Winter Weather Advisory for snow means that periods of snow
will cause primarily travel difficulties. Be prepared for snow
covered roads and limited visibilities and use caution while
driving.